Time;durP1;ratioP1;P1;durP2;ratioP2;P2;SDS_P1;SDS_P2;PMS_P1;PMS_P2;Temp;Humidity;BMP_temperature;BMP_pressure;BME280_temperature;BME280_humidity;BME280_pressure;Samples;Min_cycle;Max_cycle;Signal;HPM_P1;HPM_P2
2023/01/28 00:01:58;;;;;;;9.80;5.22;;;;;;;;;;4990622;28;20045;-82
2023/01/28 00:04:23;;;;;;;9.07;5.47;;;-0.80;99.90;;;;;;4992110;28;20030;-78
2023/01/28 00:06:49;;;;;;;14.10;5.10;;;-0.70;99.90;;;;;;4988489;28;20453;-94
2023/01/28 00:09:15;;;;;;;15.75;7.78;;;-0.70;99.90;;;;;;4987532;28;20057;-74
2023/01/28 00:11:41;;;;;;;9.25;5.45;;;-0.70;99.90;;;;;;4986420;28;20108;-84
2023/01/28 00:14:07;;;;;;;13.02;6.85;;;-0.70;99.90;;;;;;4987714;28;20630;-88
2023/01/28 00:16:32;;;;;;;17.38;6.57;;;-1.10;99.90;;;;;;4987039;28;20149;-79
2023/01/28 00:18:58;;;;;;;14.70;7.00;;;-0.80;99.90;;;;;;4988178;28;20057;-91
2023/01/28 00:21:24;;;;;;;16.70;6.68;;;;;;;;;;4986772;28;20120;-82
2023/01/28 00:23:53;;;;;;;8.80;4.25;;;-0.70;99.90;;;;;;4988641;28;20022;-89
2023/01/28 00:26:19;;;;;;;10.85;5.80;;;-0.70;99.90;;;;;;4987831;28;20038;-90
2023/01/28 00:28:46;;;;;;;14.25;5.78;;;-0.80;99.90;;;;;;4989230;28;20699;-91
2023/01/28 00:31:18;;;;;;;11.93;6.28;;;-0.70;99.90;;;;;;4988010;28;20406;-91
2023/01/28 00:33:45;;;;;;;10.90;6.20;;;-0.80;99.90;;;;;;4989354;28;20015;-90
2023/01/28 00:36:12;;;;;;;14.07;5.38;;;-0.70;99.90;;;;;;4987953;28;20664;-84
2023/01/28 00:38:41;;;;;;;12.63;5.55;;;-0.70;99.90;;;;;;4988612;28;20394;-82
2023/01/28 00:41:15;;;;;;;13.93;6.57;;;-0.70;99.90;;;;;;4988125;28;20046;-86
2023/01/28 00:43:41;;;;;;;11.73;5.38;;;-0.70;99.90;;;;;;4986032;28;20074;-76
2023/01/28 00:46:08;;;;;;;11.68;5.85;;;-0.80;99.90;;;;;;4987219;28;20034;-76
2023/01/28 00:48:35;;;;;;;11.32;5.65;;;-0.80;99.90;;;;;;4986285;28;20049;-77
2023/01/28 00:51:02;;;;;;;12.23;7.55;;;-0.80;99.90;;;;;;4986210;28;20645;-76
2023/01/28 00:53:28;;;;;;;13.85;5.88;;;-0.90;99.90;;;;;;4986299;28;20026;-76
2023/01/28 00:55:56;;;;;;;9.02;6.05;;;-0.80;99.90;;;;;;4986737;28;20030;-82
2023/01/28 00:58:24;;;;;;;12.93;6.15;;;-0.80;99.90;;;;;;4986915;28;20092;-82
2023/01/28 01:00:50;;;;;;;10.85;6.78;;;-0.70;99.90;;;;;;4986638;28;20029;-87
2023/01/28 01:03:16;;;;;;;12.90;6.07;;;-0.80;99.90;;;;;;4987553;28;20038;-83
2023/01/28 01:05:42;;;;;;;14.48;6.43;;;-0.80;99.90;;;;;;4988932;28;20366;-84
2023/01/28 01:08:08;;;;;;;13.38;5.95;;;;;;;;;;4988047;28;20121;-90
2023/01/28 01:10:34;;;;;;;12.40;5.45;;;-0.80;99.90;;;;;;4987047;28;20482;-78
2023/01/28 01:13:00;;;;;;;12.80;6.70;;;-0.80;99.90;;;;;;4990354;28;20046;-75
2023/01/28 01:15:25;;;;;;;7.60;4.90;;;-0.60;99.90;;;;;;4990151;28;20111;-77
2023/01/28 01:17:52;;;;;;;13.95;6.35;;;-0.80;99.90;;;;;;4989557;28;20038;-76
2023/01/28 01:20:19;;;;;;;12.60;5.78;;;;;;;;;;4989719;28;20061;-77
2023/01/28 01:22:45;;;;;;;10.70;5.00;;;;;;;;;;4987696;28;20058;-78
2023/01/28 01:25:16;;;;;;;9.32;5.88;;;-0.70;99.90;;;;;;4987651;28;20037;-78
2023/01/28 01:27:42;;;;;;;12.45;5.95;;;;;;;;;;4985779;28;20039;-76
2023/01/28 01:30:09;;;;;;;12.07;5.80;;;-0.80;99.90;;;;;;4987603;28;20102;-76
2023/01/28 01:32:36;;;;;;;10.52;5.43;;;;;;;;;;4987813;28;20493;-76
2023/01/28 01:35:04;;;;;;;15.05;6.65;;;-0.70;99.90;;;;;;4987715;28;20022;-79
2023/01/28 01:37:30;;;;;;;17.90;7.57;;;-0.80;99.90;;;;;;4987428;28;20030;-80
2023/01/28 01:39:56;;;;;;;15.80;6.28;;;;;;;;;;4987570;28;20033;-75
2023/01/28 01:42:24;;;;;;;11.68;6.25;;;-0.80;99.90;;;;;;4985959;28;20034;-76
2023/01/28 01:45:03;;;;;;;10.32;5.25;;;-0.80;99.90;;;;;;4986583;28;20429;-76
2023/01/28 01:47:39;;;;;;;12.25;4.95;;;-0.80;99.90;;;;;;4990432;28;20085;-76
2023/01/28 01:50:28;;;;;;;13.23;6.22;;;-0.70;99.90;;;;;;4989461;28;20037;-76
2023/01/28 01:52:59;;;;;;;11.30;5.80;;;-0.60;99.90;;;;;;4989248;28;20525;-77
2023/01/28 01:55:28;;;;;;;11.10;6.57;;;-0.60;99.90;;;;;;4989203;28;20039;-79
2023/01/28 01:57:57;;;;;;;12.97;6.10;;;-0.70;99.90;;;;;;4985962;28;20375;-76
2023/01/28 02:00:23;;;;;;;13.73;5.35;;;-0.70;99.90;;;;;;4988264;28;20274;-75
2023/01/28 02:02:50;;;;;;;12.60;7.47;;;-0.70;99.90;;;;;;4986245;28;20049;-77
2023/01/28 02:05:19;;;;;;;11.70;6.47;;;-0.70;99.90;;;;;;4986993;28;20026;-77
2023/01/28 02:07:45;;;;;;;;;;;-0.70;99.90;;;;;;4987457;28;20026;-76
2023/01/28 02:10:12;;;;;;;13.25;6.90;;;-0.80;99.90;;;;;;4985347;28;20183;-76
2023/01/28 02:12:45;;;;;;;11.10;5.82;;;-0.70;99.90;;;;;;4987481;28;20046;-76
2023/01/28 02:15:16;;;;;;;9.65;5.78;;;;;;;;;;4987364;28;20023;-76
2023/01/28 02:17:43;;;;;;;17.25;6.20;;;-0.70;99.90;;;;;;4986573;28;20396;-88
2023/01/28 02:20:17;;;;;;;13.80;6.78;;;-0.80;99.90;;;;;;4987904;28;20018;-78
2023/01/28 02:23:05;;;;;;;11.40;7.25;;;-0.80;99.90;;;;;;4987419;28;20050;-76
2023/01/28 02:26:10;;;;;;;10.23;7.25;;;-0.70;99.90;;;;;;4985601;28;20037;-76
2023/01/28 02:28:47;;;;;;;12.07;6.47;;;-0.40;99.90;;;;;;4986843;28;20033;-76
2023/01/28 02:31:24;;;;;;;12.85;7.38;;;-0.80;99.90;;;;;;4985596;28;20030;-76
2023/01/28 02:34:17;;;;;;;10.63;5.35;;;-0.70;99.90;;;;;;4987662;28;20026;-76
2023/01/28 02:36:56;;;;;;;15.32;9.02;;;-0.70;99.90;;;;;;4986466;28;20022;-81
2023/01/28 02:39:30;;;;;;;10.20;5.80;;;-0.70;99.90;;;;;;4985749;28;20057;-76
2023/01/28 02:41:57;;;;;;;12.77;6.65;;;-0.70;99.90;;;;;;4986766;28;20470;-77
2023/01/28 02:44:24;;;;;;;17.70;6.20;;;-0.70;99.90;;;;;;4986967;28;20026;-87
2023/01/28 02:49:50;;;;;;;10.77;5.38;;;-0.80;99.90;;;;;;4986803;28;20065;-76
2023/01/28 02:55:52;;;;;;;11.88;6.55;;;-0.70;99.90;;;;;;4986576;28;20046;-87
2023/01/28 02:58:45;;;;;;;14.55;6.47;;;-0.70;99.90;;;;;;4987304;28;20015;-86
2023/01/28 03:01:31;;;;;;;13.43;5.97;;;;;;;;;;4993809;28;20484;-88
2023/01/28 03:04:04;;;;;;;12.77;6.05;;;-0.70;99.90;;;;;;4991554;28;20045;-84
2023/01/28 03:06:34;;;;;;;10.82;5.10;;;;;;;;;;4991879;28;20037;-89
2023/01/28 03:09:21;;;;;;;14.55;6.53;;;-0.70;99.90;;;;;;4991401;28;20045;-82
2023/01/28 03:38:17;;;;;;;13.48;6.55;;;1.00;99.90;;;;;;4972320;28;20097;-76
2023/01/28 03:40:48;;;;;;;13.02;5.45;;;-0.70;99.90;;;;;;4972335;28;20123;-76
2023/01/28 03:43:14;;;;;;;13.45;6.53;;;-0.60;99.90;;;;;;4970560;28;20026;-77
2023/01/28 03:45:40;;;;;;;15.52;6.15;;;;;;;;;;4972057;28;20082;-78
2023/01/28 03:48:06;;;;;;;13.70;5.60;;;;;;;;;;4972445;28;20030;-77
2023/01/28 03:50:32;;;;;;;15.95;6.00;;;;;;;;;;4973362;28;20046;-78
2023/01/28 03:53:11;;;;;;;10.48;5.68;;;;;;;;;;4971913;28;20047;-77
2023/01/28 03:55:37;;;;;;;12.73;6.60;;;-0.50;99.90;;;;;;4972917;28;20074;-78
2023/01/28 03:58:04;;;;;;;10.82;5.93;;;-0.70;99.90;;;;;;4971851;28;20027;-78
2023/01/28 04:00:31;;;;;;;10.77;5.38;;;;;;;;;;4973420;28;20069;-78
2023/01/28 04:02:57;;;;;;;16.58;6.40;;;-0.50;99.90;;;;;;4973055;28;20062;-78
2023/01/28 04:05:24;;;;;;;14.20;7.28;;;-0.60;99.90;;;;;;4972683;28;20027;-76
2023/01/28 04:07:51;;;;;;;9.38;5.93;;;;;;;;;;4972524;28;20027;-78
2023/01/28 04:10:17;;;;;;;14.65;6.32;;;-0.60;99.90;;;;;;4972005;28;20250;-78
2023/01/28 04:12:43;;;;;;;12.27;6.40;;;-0.60;99.90;;;;;;4972566;28;20255;-76
2023/01/28 04:15:14;;;;;;;10.32;4.90;;;;;;;;;;4972553;28;20102;-78
2023/01/28 04:17:42;;;;;;;10.98;4.60;;;;;;;;;;4972771;28;20022;-78
2023/01/28 04:20:08;;;;;;;13.93;6.03;;;-0.90;99.90;;;;;;4972375;28;20026;-78
2023/01/28 04:22:34;;;;;;;11.05;5.57;;;;;;;;;;4972404;28;20077;-78
2023/01/28 04:25:00;;;;;;;10.43;5.50;;;-0.60;99.90;;;;;;4972053;28;20078;-75
2023/01/28 04:27:26;;;;;;;11.55;5.53;;;;;;;;;;4972298;28;20479;-78
2023/01/28 04:29:52;;;;;;;12.77;5.78;;;;;;;;;;4972562;28;20053;-77
2023/01/28 04:32:17;;;;;;;9.70;5.72;;;0.20;99.90;;;;;;4972380;28;20039;-78
2023/01/28 04:34:43;;;;;;;10.43;4.72;;;;;;;;;;4974210;28;20058;-78
2023/01/28 04:37:09;;;;;;;8.38;4.97;;;;;;;;;;4973348;28;20038;-76
2023/01/28 04:39:35;;;;;;;7.10;4.80;;;;;;;;;;4972134;28;20463;-78
2023/01/28 04:42:01;;;;;;;10.35;5.45;;;;;;;;;;4970492;28;20042;-78
2023/01/28 04:44:27;;;;;;;14.80;5.68;;;;;;;;;;4972138;28;20051;-78
2023/01/28 04:46:53;;;;;;;11.13;5.50;;;-0.60;99.90;;;;;;4971817;28;20034;-75
2023/01/28 04:49:18;;;;;;;13.15;5.75;;;-0.60;99.90;;;;;;4972485;28;20474;-77
2023/01/28 04:51:44;;;;;;;9.80;5.93;;;;;;;;;;4971718;28;20082;-75
2023/01/28 04:54:10;;;;;;;12.70;4.95;;;-0.60;99.90;;;;;;4970187;28;20030;-79
2023/01/28 04:56:36;;;;;;;8.93;5.93;;;-0.50;99.90;;;;;;4971741;28;20078;-76
2023/01/28 04:59:01;;;;;;;8.80;5.03;;;-0.50;99.90;;;;;;4970420;28;20031;-81
2023/01/28 05:01:29;;;;;;;11.75;5.65;;;;;;;;;;4971552;28;20046;-75
2023/01/28 05:03:55;;;;;;;8.88;5.07;;;;;;;;;;4971715;28;20030;-76
2023/01/28 05:06:20;;;;;;;13.25;4.97;;;-0.50;99.90;;;;;;4971598;28;20030;-76
2023/01/28 05:08:46;;;;;;;13.70;5.57;;;-0.50;99.90;;;;;;4971275;28;20030;-75
2023/01/28 05:11:12;;;;;;;9.60;5.53;;;-0.50;99.90;;;;;;4970136;28;20054;-78
2023/01/28 05:13:38;;;;;;;11.07;6.30;;;;;;;;;;4971633;28;20049;-77
2023/01/28 05:16:05;;;;;;;15.63;5.95;;;;;;;;;;4970344;28;20114;-77
2023/01/28 05:18:30;;;;;;;9.18;5.32;;;-0.70;99.90;;;;;;4971552;28;20398;-76
2023/01/28 05:20:56;;;;;;;12.07;5.85;;;-0.60;99.90;;;;;;4969983;28;20031;-79
2023/01/28 05:23:22;;;;;;;10.52;4.85;;;-0.40;99.90;;;;;;4981949;28;20037;-78
2023/01/28 05:25:48;;;;;;;11.63;4.93;;;;;;;;;;4990566;28;20022;-75
2023/01/28 05:28:14;;;;;;;13.48;4.80;;;-0.30;99.90;;;;;;4990593;28;20034;-75
2023/01/28 05:30:40;;;;;;;11.73;5.15;;;-0.50;99.90;;;;;;4990674;28;20568;-78
2023/01/28 05:33:06;;;;;;;11.73;5.18;;;;;;;;;;4989159;28;20030;-76
2023/01/28 05:35:32;;;;;;;9.88;6.10;;;;;;;;;;4990270;28;20050;-76
2023/01/28 05:37:58;;;;;;;8.60;5.53;;;-0.50;99.90;;;;;;4989181;28;20053;-78
2023/01/28 05:40:24;;;;;;;14.68;5.18;;;;;;;;;;4990491;28;20026;-78
2023/01/28 05:42:49;;;;;;;10.75;5.05;;;-0.40;99.90;;;;;;4990339;28;20030;-78
2023/01/28 05:45:15;;;;;;;9.32;5.45;;;;;;;;;;4990610;28;20026;-78
2023/01/28 05:47:41;;;;;;;11.45;6.35;;;;;;;;;;4990565;28;20088;-78
2023/01/28 05:50:08;;;;;;;11.07;4.78;;;-0.50;99.90;;;;;;4990517;28;20030;-77
2023/01/28 05:52:34;;;;;;;10.27;5.40;;;-0.50;99.90;;;;;;4990556;28;20514;-76
2023/01/28 05:55:00;;;;;;;11.25;5.05;;;-0.50;99.90;;;;;;4989359;28;20098;-77
2023/01/28 05:57:26;;;;;;;7.95;5.50;;;-0.40;99.90;;;;;;4989912;28;20030;-75
2023/01/28 05:59:52;;;;;;;8.50;5.25;;;;;;;;;;4988864;28;20038;-77
2023/01/28 06:02:17;;;;;;;7.85;4.72;;;-0.40;99.90;;;;;;4988955;28;20038;-76
2023/01/28 06:04:43;;;;;;;11.82;5.63;;;-0.40;99.90;;;;;;4987789;28;20034;-77
2023/01/28 06:07:12;;;;;;;8.57;5.18;;;;;;;;;;4989039;28;20533;-75
2023/01/28 06:09:38;;;;;;;14.20;5.22;;;;;;;;;;4989062;28;20076;-77
2023/01/28 06:12:04;;;;;;;12.52;6.40;;;-0.50;99.90;;;;;;4987853;28;20081;-75
2023/01/28 06:14:29;;;;;;;8.60;5.47;;;-0.50;99.90;;;;;;4989340;28;20061;-78
2023/01/28 06:16:57;;;;;;;6.68;5.13;;;-0.40;99.90;;;;;;4990971;28;20037;-78
2023/01/28 06:19:23;;;;;;;12.90;5.80;;;;;;;;;;4989491;28;20027;-78
2023/01/28 06:21:49;;;;;;;6.32;3.55;;;-0.70;99.90;;;;;;4988283;28;20042;-77
2023/01/28 06:24:15;;;;;;;10.98;5.55;;;;;;;;;;4987048;28;20054;-78
2023/01/28 06:26:43;;;;;;;8.38;5.07;;;;;;;;;;4986971;28;20030;-78
2023/01/28 06:29:09;;;;;;;10.93;4.53;;;-0.30;99.90;;;;;;4986939;28;20023;-77
2023/01/28 06:31:35;;;;;;;9.52;4.95;;;-0.30;99.90;;;;;;4988147;28;20101;-77
2023/01/28 06:34:01;;;;;;;12.05;5.78;;;;;;;;;;4992125;28;20038;-78
2023/01/28 06:36:27;;;;;;;7.90;4.35;;;;;;;;;;5000783;28;20022;-78
2023/01/28 06:38:52;;;;;;;11.52;5.97;;;-0.40;99.90;;;;;;4994489;28;20038;-78
2023/01/28 06:41:18;;;;;;;6.97;4.55;;;-0.40;99.90;;;;;;4992749;28;20292;-79
2023/01/28 06:43:44;;;;;;;6.85;3.90;;;;;;;;;;4994497;28;20458;-77
2023/01/28 06:46:10;;;;;;;11.75;4.85;;;-0.30;99.90;;;;;;4993239;28;20038;-77
2023/01/28 06:48:35;;;;;;;15.18;6.07;;;-0.40;99.90;;;;;;4993394;28;20041;-78
2023/01/28 06:51:01;;;;;;;13.85;6.22;;;-0.30;99.90;;;;;;4992823;28;20022;-78
2023/01/28 06:53:27;;;;;;;8.95;4.60;;;;;;;;;;4992278;28;20021;-78
2023/01/28 06:55:52;;;;;;;16.58;6.65;;;-0.30;99.90;;;;;;4992327;28;20182;-78
2023/01/28 06:58:18;;;;;;;11.13;4.78;;;;;;;;;;4992831;28;20625;-81
2023/01/28 07:00:44;;;;;;;10.60;5.88;;;-0.30;99.90;;;;;;4992774;28;20045;-78
2023/01/28 07:03:10;;;;;;;12.85;6.75;;;-0.30;99.90;;;;;;4992457;28;20026;-78
2023/01/28 07:05:35;;;;;;;6.38;3.78;;;-0.40;99.90;;;;;;4992930;28;20037;-78
2023/01/28 07:08:01;;;;;;;8.65;4.45;;;-0.30;99.90;;;;;;4992557;28;20272;-78
2023/01/28 07:10:27;;;;;;;10.27;5.45;;;;;;;;;;4993699;28;20022;-85
2023/01/28 07:12:53;;;;;;;9.30;5.00;;;;;;;;;;4996028;28;20042;-89
2023/01/28 07:15:19;;;;;;;11.63;5.68;;;;;;;;;;5000802;28;20096;-94
2023/01/28 07:17:45;;;;;;;8.25;4.57;;;;;;;;;;5004550;28;20033;-88
2023/01/28 07:20:13;;;;;;;8.73;4.63;;;-0.30;99.90;;;;;;5003671;28;20127;-89
2023/01/28 07:22:41;;;;;;;7.75;4.70;;;-0.30;99.90;;;;;;4999523;28;20042;-83
2023/01/28 07:25:07;;;;;;;8.65;4.50;;;-0.30;99.90;;;;;;5002451;28;20089;-89
2023/01/28 07:27:33;;;;;;;9.27;5.57;;;-0.30;99.90;;;;;;5001482;28;20061;-89
2023/01/28 07:29:59;;;;;;;7.40;4.57;;;;;;;;;;5003850;28;20019;-89
2023/01/28 07:32:26;;;;;;;11.85;5.22;;;;;;;;;;5002888;28;20034;-83
2023/01/28 07:34:52;;;;;;;10.07;5.68;;;;;;;;;;4994701;28;20146;-76
2023/01/28 07:37:18;;;;;;;6.60;4.05;;;;;;;;;;4999662;28;20034;-76
2023/01/28 07:39:44;;;;;;;10.93;4.78;;;;;;;;;;4992131;28;20033;-75
2023/01/28 07:42:10;;;;;;;8.48;4.68;;;-0.30;99.90;;;;;;4991092;28;20470;-77
2023/01/28 07:44:36;;;;;;;9.93;4.82;;;-0.10;99.90;;;;;;4990472;28;20018;-75
2023/01/28 07:47:03;;;;;;;10.85;4.90;;;;;;;;;;4990696;28;20034;-80
2023/01/28 07:49:29;;;;;;;7.10;4.07;;;;;;;;;;4990890;28;20208;-77
2023/01/28 07:51:55;;;;;;;7.70;4.55;;;;;;;;;;4989710;28;20065;-78
2023/01/28 07:54:21;;;;;;;12.38;5.47;;;;;;;;;;4990806;28;20467;-78
2023/01/28 07:56:47;;;;;;;12.27;4.82;;;;;;;;;;4989506;28;20112;-78
2023/01/28 07:59:13;;;;;;;8.00;4.90;;;;;;;;;;4990099;28;20442;-79
2023/01/28 08:01:39;;;;;;;10.15;4.80;;;;;;;;;;4987740;28;20106;-75
2023/01/28 08:04:04;;;;;;;13.70;6.50;;;-0.30;99.90;;;;;;4989095;28;20462;-77
2023/01/28 08:06:36;;;;;;;12.57;5.07;;;;;;;;;;4989033;28;20073;-78
2023/01/28 08:09:07;;;;;;;8.00;4.32;;;-0.20;99.90;;;;;;4989636;28;20022;-76
2023/01/28 08:11:35;;;;;;;10.60;4.95;;;;;;;;;;4993108;28;20089;-75
2023/01/28 08:14:01;;;;;;;11.63;6.00;;;;;;;;;;4992788;28;20497;-76
2023/01/28 08:16:28;;;;;;;7.25;3.95;;;;;;;;;;4992264;28;20109;-77
2023/01/28 08:18:54;;;;;;;9.18;3.88;;;;;;;;;;4992254;28;20026;-75
2023/01/28 08:21:20;;;;;;;11.43;4.75;;;;;;;;;;4992270;28;20173;-78
2023/01/28 08:23:45;;;;;;;8.70;5.85;;;-1.30;99.90;;;;;;4990233;28;20121;-76
2023/01/28 08:26:11;;;;;;;8.05;4.72;;;;;;;;;;4990361;28;20028;-76
2023/01/28 08:28:37;;;;;;;8.38;4.25;;;;;;;;;;4992075;28;20022;-76
2023/01/28 08:31:03;;;;;;;12.75;5.32;;;-0.10;99.90;;;;;;4991917;28;20587;-75
2023/01/28 08:33:29;;;;;;;12.88;4.88;;;-0.10;99.90;;;;;;4991940;28;20026;-76
2023/01/28 08:35:56;;;;;;;13.25;7.07;;;-0.10;99.90;;;;;;4991604;28;20105;-77
2023/01/28 08:38:22;;;;;;;18.38;8.27;;;-0.10;99.90;;;;;;4991326;28;20482;-75
2023/01/28 08:40:54;;;;;;;9.77;4.55;;;;;;;;;;4991470;28;20038;-76
2023/01/28 08:43:20;;;;;;;8.73;5.10;;;-0.10;99.90;;;;;;4990019;28;20026;-80
2023/01/28 08:45:45;;;;;;;9.15;5.20;;;0.10;99.90;;;;;;4991715;28;20046;-76
2023/01/28 08:48:15;;;;;;;7.25;4.32;;;-0.10;99.90;;;;;;4991845;28;20256;-75
2023/01/28 08:50:41;;;;;;;11.18;5.38;;;;;;;;;;4992191;28;20042;-78
2023/01/28 08:53:13;;;;;;;10.23;5.45;;;0.10;99.90;;;;;;4991563;28;20025;-75
2023/01/28 08:55:39;;;;;;;10.80;5.72;;;0.00;99.90;;;;;;4991154;28;20458;-75
2023/01/28 08:58:07;;;;;;;6.60;4.20;;;0.10;99.90;;;;;;4991287;28;20035;-75
2023/01/28 09:00:33;;;;;;;7.40;3.67;;;0.00;99.90;;;;;;4992083;28;20054;-80
2023/01/28 09:02:59;;;;;;;8.07;4.55;;;-0.10;99.90;;;;;;4991935;28;20038;-75
2023/01/28 09:05:25;;;;;;;11.38;6.18;;;;;;;;;;4992892;28;20052;-79
2023/01/28 09:07:51;;;;;;;10.68;5.65;;;0.10;99.90;;;;;;4991495;28;20027;-76
2023/01/28 09:10:19;;;;;;;6.55;4.43;;;0.10;99.90;;;;;;4991646;28;20470;-75
2023/01/28 09:12:45;;;;;;;18.40;7.72;;;0.20;99.90;;;;;;4991703;28;20042;-75
2023/01/28 09:15:11;;;;;;;13.18;5.72;;;0.30;99.90;;;;;;4991967;28;20023;-77
2023/01/28 09:17:43;;;;;;;8.15;4.68;;;0.30;99.90;;;;;;4994176;28;20022;-78
2023/01/28 09:20:10;;;;;;;11.07;4.72;;;0.30;99.90;;;;;;4994839;28;20485;-80
2023/01/28 09:22:36;;;;;;;8.25;4.65;;;;;;;;;;4998080;28;20042;-80
2023/01/28 09:25:02;;;;;;;7.80;5.40;;;0.50;99.90;;;;;;4996562;28;20042;-82
2023/01/28 09:27:28;;;;;;;9.70;5.43;;;;;;;;;;4998496;28;20037;-81
2023/01/28 09:29:53;;;;;;;7.60;4.18;;;0.50;99.90;;;;;;4997465;28;20046;-82
2023/01/28 09:32:19;;;;;;;14.15;5.25;;;0.60;99.90;;;;;;5002907;28;20041;-81
2023/01/28 09:34:45;;;;;;;12.95;5.53;;;0.80;99.90;;;;;;5006560;28;20022;-76
2023/01/28 09:37:11;;;;;;;15.30;5.65;;;2.20;99.90;;;;;;5006525;28;20030;-80
2023/01/28 09:39:37;;;;;;;18.95;5.35;;;2.40;99.90;;;;;;5011116;28;20015;-80
2023/01/28 09:42:14;;;;;;;6.50;3.22;;;2.20;99.90;;;;;;5011667;28;20077;-74
2023/01/28 09:45:06;;;;;;;15.45;4.65;;;0.70;99.90;;;;;;4999824;28;20023;-82
2023/01/28 09:47:47;;;;;;;10.13;4.35;;;0.80;99.90;;;;;;5010909;28;20401;-77
2023/01/28 09:50:40;;;;;;;5.45;3.85;;;0.80;99.90;;;;;;5012604;28;20046;-77
2023/01/28 09:53:11;;;;;;;8.27;4.32;;;0.80;99.90;;;;;;5013493;28;20026;-80
2023/01/28 09:55:58;;;;;;;12.05;6.18;;;1.70;99.90;;;;;;5012880;28;20029;-79
2023/01/28 09:58:24;;;;;;;12.45;6.60;;;0.90;99.90;;;;;;5011042;28;20038;-77
2023/01/28 10:01:01;;;;;;;12.43;5.35;;;0.90;99.90;;;;;;5012097;28;20023;-79
2023/01/28 10:03:51;;;;;;;11.88;6.13;;;1.80;99.90;;;;;;5015226;28;20093;-81
2023/01/28 10:06:33;;;;;;;9.65;5.40;;;1.00;99.90;;;;;;5014919;28;20046;-81
2023/01/28 10:09:29;;;;;;;6.57;3.92;;;2.60;99.90;;;;;;5014311;28;20015;-80
2023/01/28 10:12:13;;;;;;;7.68;3.75;;;1.10;99.90;;;;;;5014345;28;20120;-82
2023/01/28 10:14:56;;;;;;;8.40;3.90;;;1.00;99.90;;;;;;5014806;28;20030;-80
2023/01/28 10:17:38;;;;;;;5.18;3.55;;;1.10;99.90;;;;;;5014914;28;20033;-79
2023/01/28 10:20:27;;;;;;;7.68;4.13;;;2.70;99.90;;;;;;4992269;28;20045;-86
2023/01/28 10:23:04;;;;;;;5.28;3.30;;;1.30;99.90;;;;;;4992496;28;20034;-90
2023/01/28 10:25:31;;;;;;;5.97;3.40;;;1.10;99.90;;;;;;4991618;28;20026;-90
2023/01/28 10:27:59;;;;;;;6.10;3.47;;;1.00;99.90;;;;;;4991937;28;20026;-84
2023/01/28 10:30:29;;;;;;;8.10;3.30;;;2.80;99.90;;;;;;4991151;28;20033;-76
2023/01/28 10:33:21;;;;;;;5.53;3.15;;;1.10;99.90;;;;;;4991498;28;20034;-88
2023/01/28 10:35:47;;;;;;;6.68;3.20;;;0.90;99.90;;;;;;4989626;28;20023;-79
2023/01/28 10:38:16;;;;;;;9.70;3.42;;;0.90;99.90;;;;;;4990494;28;20029;-84
2023/01/28 10:40:42;;;;;;;7.10;3.33;;;0.90;99.90;;;;;;4990360;28;20034;-84
2023/01/28 10:43:09;;;;;;;3.80;2.88;;;;;;;;;;4990310;28;20437;-79
2023/01/28 10:45:56;;;;;;;9.25;4.55;;;0.90;99.90;;;;;;4990186;28;20073;-81
2023/01/28 10:48:24;;;;;;;6.15;3.22;;;0.90;99.90;;;;;;4990347;28;20027;-80
2023/01/28 10:50:53;;;;;;;9.15;3.97;;;0.80;99.90;;;;;;4990047;28;20037;-75
2023/01/28 10:53:18;;;;;;;7.97;3.88;;;0.80;99.90;;;;;;4990906;28;20022;-74
2023/01/28 10:55:57;;;;;;;6.43;3.25;;;0.80;99.90;;;;;;4988780;28;20113;-78
2023/01/28 10:58:25;;;;;;;8.98;4.45;;;1.10;99.90;;;;;;4990461;28;20101;-81
2023/01/28 11:00:56;;;;;;;9.07;4.00;;;1.00;99.90;;;;;;4990656;28;20027;-78
2023/01/28 11:03:29;;;;;;;3.92;3.15;;;1.10;99.90;;;;;;4991053;28;20034;-81
2023/01/28 11:05:56;;;;;;;8.20;3.25;;;1.10;99.90;;;;;;4990454;28;20386;-79
2023/01/28 11:08:24;;;;;;;10.38;4.13;;;1.10;99.90;;;;;;4991203;28;20026;-76
2023/01/28 11:10:52;;;;;;;5.90;3.00;;;;;;;;;;4991926;28;20027;-76
2023/01/28 11:13:28;;;;;;;10.02;4.90;;;1.30;99.90;;;;;;4990680;28;20425;-79
2023/01/28 11:15:58;;;;;;;8.20;3.50;;;1.60;99.90;;;;;;4990528;28;20320;-76
2023/01/28 11:18:39;;;;;;;7.15;2.80;;;1.20;99.90;;;;;;4989994;28;20394;-79
2023/01/28 11:21:13;;;;;;;6.78;3.15;;;2.80;99.90;;;;;;4991627;28;20025;-80
2023/01/28 11:23:56;;;;;;;11.10;4.25;;;1.30;99.90;;;;;;4994141;28;20042;-80
2023/01/28 11:26:25;;;;;;;7.80;3.45;;;1.60;99.90;;;;;;4996153;28;20110;-80
2023/01/28 11:28:51;;;;;;;4.75;3.90;;;2.20;99.90;;;;;;4996066;28;20034;-79
2023/01/28 11:31:19;;;;;;;6.90;3.40;;;;;;;;;;4995814;28;20109;-79
2023/01/28 11:33:52;;;;;;;7.35;3.58;;;1.30;99.90;;;;;;4994491;28;20482;-80
2023/01/28 11:36:22;;;;;;;12.57;4.75;;;1.30;99.90;;;;;;4994035;28;20026;-78
2023/01/28 11:38:59;;;;;;;11.32;4.53;;;1.20;99.90;;;;;;4991684;28;20393;-78
2023/01/28 11:41:31;;;;;;;8.55;2.90;;;;;;;;;;4991986;28;20393;-77
2023/01/28 11:43:59;;;;;;;5.93;2.85;;;2.20;99.90;;;;;;4992043;28;20037;-76
2023/01/28 11:46:46;;;;;;;5.53;2.40;;;2.50;99.90;;;;;;4993577;28;20045;-79
2023/01/28 11:49:27;;;;;;;5.68;3.03;;;;;;;;;;4994024;28;20117;-78
2023/01/28 11:52:02;;;;;;;6.82;3.45;;;1.40;99.90;;;;;;4995310;28;20026;-80
2023/01/28 11:54:48;;;;;;;3.13;2.55;;;0.90;99.90;;;;;;4995853;28;20030;-79
2023/01/28 11:57:28;;;;;;;4.40;2.38;;;2.10;99.90;;;;;;4994501;28;20038;-78
2023/01/28 12:00:28;;;;;;;5.72;4.18;;;1.60;99.90;;;;;;4997239;28;20027;-79
2023/01/28 12:03:31;;;;;;;5.70;3.05;;;1.80;99.90;;;;;;5004810;28;20374;-80
2023/01/28 12:06:25;;;;;;;5.88;2.80;;;1.60;99.90;;;;;;4979289;28;20034;-82
2023/01/28 12:09:11;;;;;;;4.82;2.67;;;1.80;99.90;;;;;;4997363;28;20422;-82
2023/01/28 12:12:10;;;;;;;5.53;3.05;;;1.80;99.90;;;;;;5004755;28;20058;-78
2023/01/28 12:15:14;;;;;;;5.22;2.65;;;1.90;99.90;;;;;;5008048;28;20085;-80
2023/01/28 12:17:59;;;;;;;16.00;7.38;;;1.90;99.90;;;;;;5009147;28;20030;-80
2023/01/28 12:20:37;;;;;;;14.82;6.35;;;2.10;99.90;;;;;;4999919;28;20026;-80
2023/01/28 12:23:32;;;;;;;6.07;3.65;;;2.60;99.90;;;;;;4990851;28;20429;-82
2023/01/28 12:26:03;;;;;;;7.82;3.42;;;1.60;99.90;;;;;;4992368;28;20374;-79
2023/01/28 12:28:57;;;;;;;8.25;4.25;;;2.10;99.90;;;;;;4993063;28;20026;-80
2023/01/28 12:31:34;;;;;;;4.15;2.72;;;2.20;99.90;;;;;;4991550;28;20022;-80
2023/01/28 12:34:37;;;;;;;3.75;2.85;;;3.80;99.90;;;;;;4992343;28;20406;-79
2023/01/28 12:37:32;;;;;;;6.63;3.40;;;2.00;99.90;;;;;;4995027;28;20065;-81
2023/01/28 12:40:18;;;;;;;5.20;2.75;;;2.10;99.90;;;;;;4995415;28;20023;-83
2023/01/28 12:42:56;;;;;;;6.82;3.58;;;2.10;99.90;;;;;;4997029;28;20038;-86
2023/01/28 12:45:44;;;;;;;10.68;3.75;;;2.40;99.90;;;;;;4995341;28;20030;-82
2023/01/28 12:48:20;;;;;;;11.43;3.30;;;2.20;99.90;;;;;;4993248;28;20166;-80
2023/01/28 12:50:55;;;;;;;6.07;4.25;;;3.30;99.90;;;;;;4996011;28;20029;-79
2023/01/28 12:53:29;;;;;;;4.80;3.95;;;2.20;99.90;;;;;;4993388;28;20058;-79
2023/01/28 12:56:08;;;;;;;4.03;2.75;;;2.30;99.90;;;;;;4991654;28;20026;-79
2023/01/28 12:58:52;;;;;;;6.28;2.50;;;2.30;99.90;;;;;;4994614;28;20029;-79
2023/01/28 13:01:24;;;;;;;8.40;3.63;;;2.20;99.90;;;;;;4984431;28;20500;-77
2023/01/28 13:03:54;;;;;;;4.15;2.67;;;2.80;99.90;;;;;;5009169;28;20054;-77
2023/01/28 13:06:43;;;;;;;7.05;4.18;;;2.90;99.90;;;;;;5011628;28;20022;-77
2023/01/28 13:09:27;;;;;;;7.20;3.30;;;2.30;99.90;;;;;;4978498;28;20031;-77
2023/01/28 13:11:56;;;;;;;5.53;3.67;;;3.00;99.90;;;;;;4972116;28;20146;-77
2023/01/28 13:14:29;;;;;;;5.95;3.20;;;2.30;99.90;;;;;;4970946;28;20094;-74
2023/01/28 13:16:56;;;;;;;6.45;2.83;;;2.50;99.90;;;;;;4982296;28;20499;-80
2023/01/28 13:19:34;;;;;;;5.20;3.90;;;2.40;99.90;;;;;;4996331;28;20069;-77
2023/01/28 13:22:10;;;;;;;6.65;3.45;;;3.40;99.90;;;;;;4990702;28;20045;-77
2023/01/28 13:24:36;;;;;;;5.63;3.30;;;2.80;99.90;;;;;;4990263;28;20486;-78
2023/01/28 13:27:11;;;;;;;6.53;3.20;;;2.30;99.90;;;;;;4988764;28;20034;-77
2023/01/28 13:29:37;;;;;;;6.20;3.15;;;2.20;99.90;;;;;;4988976;28;20026;-77
2023/01/28 13:32:28;;;;;;;7.75;3.28;;;2.20;99.90;;;;;;4995169;28;20044;-77
2023/01/28 13:35:04;;;;;;;4.05;2.95;;;2.20;99.90;;;;;;4986862;28;20061;-76
2023/01/28 13:37:30;;;;;;;7.50;3.55;;;;;;;;;;4986835;28;20030;-79
2023/01/28 13:40:11;;;;;;;3.33;2.42;;;2.20;99.90;;;;;;4989795;28;20030;-76
2023/01/28 13:42:37;;;;;;;6.25;3.20;;;2.20;99.90;;;;;;4984042;28;20070;-77
2023/01/28 13:45:14;;;;;;;5.80;2.53;;;2.00;99.90;;;;;;4986800;28;20105;-76
2023/01/28 13:47:45;;;;;;;4.70;2.97;;;1.90;99.90;;;;;;4992893;28;20034;-77
2023/01/28 13:50:31;;;;;;;6.70;2.55;;;1.80;99.90;;;;;;4995500;28;20029;-77
2023/01/28 13:53:20;;;;;;;3.63;2.67;;;;;;;;;;4987299;28;20148;-78
2023/01/28 13:55:47;;;;;;;3.38;2.53;;;1.80;99.90;;;;;;4984280;28;20043;-76
2023/01/28 13:58:36;;;;;;;2.42;2.13;;;1.90;99.90;;;;;;4994384;28;20032;-77
2023/01/28 14:01:26;;;;;;;4.65;2.17;;;1.80;99.90;;;;;;4985047;28;20032;-77
2023/01/28 14:04:10;;;;;;;4.63;2.63;;;1.90;99.90;;;;;;4986125;28;20038;-77
2023/01/28 14:06:36;;;;;;;3.97;2.00;;;;;;;;;;4988974;28;20038;-76